Time;durP1;ratioP1;P1;durP2;ratioP2;P2;SDS_P1;SDS_P2;PMS_P1;PMS_P2;Temp;Humidity;BMP_temperature;BMP_pressure;BME280_temperature;BME280_humidity;BME280_pressure;Samples;Min_cycle;Max_cycle;Signal;HPM_P1;HPM_P2
2022/08/07 00:01:08;;;;;;;0.00;0.00;;;12.70;99.90;;;;;;5097468;28;20104;-80
2022/08/07 00:03:34;;;;;;;0.00;0.00;;;12.60;99.90;;;;;;5097362;28;20052;-80
2022/08/07 00:06:01;;;;;;;0.00;0.00;;;12.60;99.90;;;;;;5097619;28;20036;-80
2022/08/07 00:08:26;;;;;;;0.00;0.00;;;12.80;99.90;;;;;;5114506;28;20051;-80
2022/08/07 00:10:52;;;;;;;0.00;0.00;;;12.50;99.90;;;;;;5114645;28;20040;-80
2022/08/07 00:13:20;;;;;;;0.22;0.00;;;13.00;99.90;;;;;;5114310;28;20499;-80
2022/08/07 00:15:46;;;;;;;0.10;0.03;;;12.70;99.90;;;;;;5097148;28;20494;-80
2022/08/07 00:18:16;;;;;;;0.00;0.00;;;13.00;99.90;;;;;;5097936;28;20109;-79
2022/08/07 00:20:42;;;;;;;0.03;0.00;;;12.60;99.90;;;;;;5114705;28;20421;-79
2022/08/07 00:23:07;;;;;;;0.00;0.00;;;12.80;99.90;;;;;;5113830;28;20044;-80
2022/08/07 00:25:34;;;;;;;0.00;0.00;;;12.60;99.90;;;;;;5114063;28;20089;-80
2022/08/07 00:28:00;;;;;;;0.00;0.00;;;12.60;99.90;;;;;;5097280;28;20134;-80
2022/08/07 00:30:26;;;;;;;0.03;0.00;;;12.50;99.90;;;;;;5114208;28;20134;-80
2022/08/07 00:32:52;;;;;;;0.03;0.03;;;12.80;99.90;;;;;;5114278;28;20044;-80
2022/08/07 00:35:19;;;;;;;0.00;0.00;;;12.60;99.90;;;;;;5097378;28;20159;-80
2022/08/07 00:37:45;;;;;;;0.00;0.00;;;12.50;99.90;;;;;;5097293;28;20047;-80
2022/08/07 00:40:12;;;;;;;0.00;0.00;;;12.70;99.90;;;;;;5097376;28;20047;-80
2022/08/07 00:42:38;;;;;;;0.00;0.00;;;12.60;99.90;;;;;;5097205;28;20051;-80
2022/08/07 00:45:04;;;;;;;1.17;0.38;;;12.30;99.90;;;;;;5114086;28;20152;-80
2022/08/07 00:47:31;;;;;;;0.00;0.00;;;12.40;99.90;;;;;;5096354;28;20049;-79
2022/08/07 00:49:57;;;;;;;0.05;0.03;;;12.50;99.90;;;;;;5096761;28;20139;-80
2022/08/07 00:52:22;;;;;;;0.08;0.05;;;12.40;99.90;;;;;;5096840;28;20135;-80
2022/08/07 00:54:48;;;;;;;0.00;0.00;;;12.60;99.90;;;;;;5097002;28;20040;-80
2022/08/07 00:57:16;;;;;;;0.30;0.08;;;12.50;99.90;;;;;;5113762;28;20437;-80
2022/08/07 00:59:42;;;;;;;0.00;0.00;;;12.40;99.90;;;;;;5096515;28;20043;-80
2022/08/07 01:02:09;;;;;;;0.00;0.00;;;12.30;99.90;;;;;;5113847;28;20104;-80
2022/08/07 01:04:34;;;;;;;0.00;0.00;;;12.20;99.90;;;;;;5113747;28;20097;-80
2022/08/07 01:07:00;;;;;;;0.05;0.00;;;12.20;99.90;;;;;;5096624;28;20055;-80
2022/08/07 01:09:27;;;;;;;0.00;0.00;;;12.40;99.90;;;;;;5096708;28;20036;-80
2022/08/07 01:11:53;;;;;;;0.00;0.00;;;12.10;99.90;;;;;;5113614;28;20484;-80
2022/08/07 01:14:23;;;;;;;0.10;0.00;;;12.10;99.90;;;;;;5096725;28;20043;-80
2022/08/07 01:16:51;;;;;;;0.00;0.00;;;12.10;99.90;;;;;;5097098;28;20048;-80
2022/08/07 01:19:18;;;;;;;0.00;0.00;;;12.00;99.90;;;;;;5113708;28;20051;-80
2022/08/07 01:21:45;;;;;;;0.32;0.32;;;11.90;99.90;;;;;;5113681;28;20099;-80
2022/08/07 01:24:11;;;;;;;0.20;0.20;;;12.00;99.90;;;;;;5096816;28;20147;-79
2022/08/07 01:26:37;;;;;;;0.28;0.17;;;12.20;99.90;;;;;;5113638;28;20047;-80
2022/08/07 01:29:04;;;;;;;0.00;0.00;;;11.90;99.90;;;;;;5113344;28;20051;-80
2022/08/07 01:31:32;;;;;;;0.00;0.00;;;11.90;99.90;;;;;;5113093;28;20048;-80
2022/08/07 01:33:59;;;;;;;0.00;0.00;;;12.00;99.90;;;;;;5113487;28;20048;-80
2022/08/07 01:36:27;;;;;;;1.55;0.28;;;11.60;99.90;;;;;;5098919;28;20050;-80
2022/08/07 01:38:53;;;;;;;0.00;0.00;;;12.00;99.90;;;;;;5117261;28;20051;-79
2022/08/07 01:41:20;;;;;;;0.00;0.00;;;11.80;99.90;;;;;;5117308;28;20060;-80
2022/08/07 01:43:47;;;;;;;0.05;0.00;;;11.80;99.90;;;;;;5100409;28;20082;-79
2022/08/07 01:46:14;;;;;;;0.10;0.10;;;11.70;99.90;;;;;;5117502;28;20487;-80
2022/08/07 01:48:41;;;;;;;0.00;0.00;;;11.80;99.90;;;;;;5100060;28;20471;-80
2022/08/07 01:51:10;;;;;;;0.03;0.03;;;11.80;99.90;;;;;;5117152;28;20138;-80
2022/08/07 01:53:38;;;;;;;0.00;0.00;;;11.70;99.90;;;;;;5099727;28;20093;-80
2022/08/07 01:56:24;;;;;;;0.00;0.00;;;11.70;99.90;;;;;;5099963;28;20094;-80
2022/08/07 01:58:57;;;;;;;0.00;0.00;;;11.60;99.90;;;;;;5100254;28;20044;-80
2022/08/07 02:01:26;;;;;;;0.45;0.28;;;11.60;99.90;;;;;;5117288;28;20047;-80
2022/08/07 02:04:17;;;;;;;0.00;0.00;;;11.70;99.90;;;;;;5117014;28;20050;-80
2022/08/07 02:06:44;;;;;;;1.17;0.10;;;11.70;99.90;;;;;;5087175;28;20059;-80
2022/08/07 02:09:14;;;;;;;0.05;0.00;;;11.70;99.90;;;;;;5116360;28;20042;-80
2022/08/07 02:11:43;;;;;;;0.20;0.20;;;11.80;99.90;;;;;;5117486;28;20047;-80
2022/08/07 02:14:10;;;;;;;0.10;0.10;;;11.70;99.90;;;;;;5099320;28;20469;-80
2022/08/07 02:16:38;;;;;;;0.00;0.00;;;11.80;99.90;;;;;;5099569;28;20047;-80
2022/08/07 02:19:08;;;;;;;0.10;0.00;;;11.70;99.90;;;;;;5099596;28;20149;-80
2022/08/07 02:21:38;;;;;;;2.05;0.22;;;11.70;99.90;;;;;;5100318;28;20111;-80
2022/08/07 02:24:05;;;;;;;0.00;0.00;;;11.70;99.90;;;;;;5116906;28;20123;-80
2022/08/07 02:26:34;;;;;;;0.00;0.00;;;11.70;99.90;;;;;;5099866;28;20058;-80
2022/08/07 02:29:03;;;;;;;0.73;0.30;;;11.70;99.90;;;;;;5099503;28;20040;-80
2022/08/07 02:31:30;;;;;;;0.82;0.20;;;11.60;99.90;;;;;;5117186;28;20494;-80
2022/08/07 02:33:58;;;;;;;0.00;0.00;;;11.60;99.90;;;;;;5116363;28;20501;-80
2022/08/07 02:36:26;;;;;;;0.45;0.30;;;11.60;99.90;;;;;;5099822;28;20051;-80
2022/08/07 02:38:53;;;;;;;0.22;0.08;;;11.60;99.90;;;;;;5099337;28;20044;-80
2022/08/07 02:41:20;;;;;;;0.57;0.17;;;11.50;99.90;;;;;;5116560;28;20075;-80
2022/08/07 02:43:48;;;;;;;0.00;0.00;;;11.50;99.90;;;;;;5098927;28;20067;-80
2022/08/07 02:46:17;;;;;;;0.40;0.00;;;11.50;99.90;;;;;;5099722;28;20051;-80
2022/08/07 02:48:43;;;;;;;0.00;0.00;;;11.50;99.90;;;;;;5098441;28;20135;-80
2022/08/07 02:51:12;;;;;;;0.00;0.00;;;11.40;99.90;;;;;;5099354;28;20138;-80
2022/08/07 02:53:40;;;;;;;0.00;0.00;;;11.40;99.90;;;;;;5116046;28;20100;-80
2022/08/07 02:56:11;;;;;;;0.00;0.00;;;11.40;99.90;;;;;;5099098;28;20055;-80
2022/08/07 02:58:38;;;;;;;0.03;0.00;;;11.30;99.90;;;;;;5121678;28;20047;-80
2022/08/07 03:01:04;;;;;;;0.00;0.00;;;11.30;99.90;;;;;;5121299;28;20153;-80
2022/08/07 03:03:33;;;;;;;0.00;0.00;;;11.30;99.90;;;;;;5105155;28;20163;-80
2022/08/07 03:06:00;;;;;;;0.05;0.00;;;11.20;99.90;;;;;;5120745;28;20047;-80
2022/08/07 03:08:26;;;;;;;0.00;0.00;;;11.20;99.90;;;;;;5100305;28;20052;-80
2022/08/07 03:10:53;;;;;;;0.00;0.00;;;11.20;99.90;;;;;;5116465;28;20054;-80
2022/08/07 03:13:19;;;;;;;0.00;0.00;;;11.20;99.90;;;;;;5116077;28;20050;-80
2022/08/07 03:15:45;;;;;;;0.00;0.00;;;11.20;99.90;;;;;;5117007;28;20139;-80
2022/08/07 03:18:12;;;;;;;0.00;0.00;;;11.20;99.90;;;;;;5116157;28;20479;-80
2022/08/07 03:20:39;;;;;;;3.30;0.10;;;11.30;99.90;;;;;;5099214;28;20054;-80
2022/08/07 03:23:06;;;;;;;0.00;0.00;;;11.20;99.90;;;;;;5115958;28;20193;-80
2022/08/07 03:25:34;;;;;;;0.25;0.25;;;11.20;99.90;;;;;;5098821;28;20404;-80
2022/08/07 03:28:01;;;;;;;0.00;0.00;;;11.20;99.90;;;;;;5098261;28;20066;-80
2022/08/07 03:30:27;;;;;;;0.10;0.00;;;11.20;99.90;;;;;;5115731;28;20043;-80
2022/08/07 03:32:55;;;;;;;0.25;0.00;;;11.20;99.90;;;;;;5115848;28;20052;-80
2022/08/07 03:35:25;;;;;;;0.08;0.08;;;11.20;99.90;;;;;;5098859;28;20093;-80
2022/08/07 03:37:56;;;;;;;0.00;0.00;;;11.10;99.90;;;;;;5098398;28;20097;-80
2022/08/07 03:40:23;;;;;;;0.00;0.00;;;11.10;99.90;;;;;;5115768;28;20081;-80
2022/08/07 03:42:51;;;;;;;0.00;0.00;;;11.10;99.90;;;;;;5115259;28;20433;-80
2022/08/07 03:45:18;;;;;;;0.40;0.40;;;11.10;99.90;;;;;;5098506;28;20217;-80
2022/08/07 03:47:44;;;;;;;0.08;0.00;;;11.10;99.90;;;;;;5098079;28;20126;-80
2022/08/07 03:50:10;;;;;;;0.43;0.10;;;11.10;99.90;;;;;;5114609;28;20110;-80
2022/08/07 03:52:37;;;;;;;0.00;0.00;;;11.00;99.90;;;;;;5098066;28;20113;-80
2022/08/07 03:55:05;;;;;;;0.00;0.00;;;11.00;99.90;;;;;;5097908;28;20392;-80
2022/08/07 03:57:31;;;;;;;0.00;0.00;;;10.90;99.90;;;;;;5114400;28;20040;-80
2022/08/07 03:59:58;;;;;;;0.00;0.00;;;10.90;99.90;;;;;;5096581;28;20070;-80
2022/08/07 04:02:25;;;;;;;0.10;0.10;;;11.00;99.90;;;;;;5097203;28;20048;-80
2022/08/07 04:04:50;;;;;;;0.00;0.00;;;10.90;99.90;;;;;;5098029;28;20039;-80
2022/08/07 04:07:17;;;;;;;0.00;0.00;;;10.90;99.90;;;;;;5097508;28;20447;-81
2022/08/07 04:09:45;;;;;;;0.00;0.00;;;10.90;99.90;;;;;;5098366;28;20044;-80
2022/08/07 04:12:12;;;;;;;0.10;0.10;;;10.90;99.90;;;;;;5114721;28;20058;-80
2022/08/07 04:14:39;;;;;;;0.00;0.00;;;10.90;99.90;;;;;;5114489;28;20495;-80
2022/08/07 04:17:05;;;;;;;0.25;0.15;;;11.00;99.90;;;;;;5114233;28;20083;-81
2022/08/07 04:19:31;;;;;;;0.15;0.15;;;10.90;99.90;;;;;;5114306;28;20089;-80
2022/08/07 04:21:57;;;;;;;0.10;0.00;;;10.90;99.90;;;;;;5114100;28;20047;-80
2022/08/07 04:24:24;;;;;;;0.17;0.10;;;11.00;99.90;;;;;;5114308;28;20051;-81
2022/08/07 04:26:49;;;;;;;0.00;0.00;;;11.00;99.90;;;;;;5114378;28;20051;-80
2022/08/07 04:29:15;;;;;;;0.38;0.30;;;11.00;99.90;;;;;;5114118;28;20066;-80
2022/08/07 04:31:41;;;;;;;0.00;0.00;;;11.00;99.90;;;;;;5097060;28;20056;-80
2022/08/07 04:34:07;;;;;;;0.30;0.10;;;11.00;99.90;;;;;;5097137;28;20479;-80
2022/08/07 04:36:34;;;;;;;0.00;0.00;;;11.00;99.90;;;;;;5097148;28;20244;-80
2022/08/07 04:39:01;;;;;;;0.10;0.10;;;11.00;99.90;;;;;;5097344;28;20052;-80
2022/08/07 04:41:27;;;;;;;0.00;0.00;;;10.90;99.90;;;;;;5114403;28;20116;-80
2022/08/07 04:43:55;;;;;;;0.30;0.00;;;10.90;99.90;;;;;;5114040;28;20058;-81
2022/08/07 04:46:46;;;;;;;0.00;0.00;;;11.00;99.90;;;;;;5114086;28;20047;-80
2022/08/07 04:49:34;;;;;;;0.43;0.10;;;11.00;99.90;;;;;;5113705;28;20189;-81
2022/08/07 04:52:12;;;;;;;0.00;0.00;;;11.00;99.90;;;;;;5114920;28;20098;-80
2022/08/07 04:55:00;;;;;;;0.52;0.52;;;11.00;99.90;;;;;;5096929;28;20093;-80
2022/08/07 04:57:56;;;;;;;0.10;0.00;;;11.00;99.90;;;;;;5097112;28;20051;-80
2022/08/07 05:00:34;;;;;;;0.00;0.00;;;11.00;99.90;;;;;;5114727;28;20052;-80
2022/08/07 05:03:41;;;;;;;0.10;0.10;;;11.10;99.90;;;;;;5096788;28;20443;-80
2022/08/07 05:06:15;;;;;;;0.00;0.00;;;11.10;99.90;;;;;;5000008;28;20247;-80
2022/08/07 05:09:14;;;;;;;0.00;0.00;;;11.10;99.90;;;;;;5015998;28;20444;-80
2022/08/07 05:11:45;;;;;;;0.00;0.00;;;11.20;99.90;;;;;;5018806;28;20068;-80
2022/08/07 05:14:27;;;;;;;0.00;0.00;;;11.20;99.90;;;;;;5003588;28;20167;-80
2022/08/07 05:16:57;;;;;;;0.00;0.00;;;11.20;99.90;;;;;;5003725;28;20071;-80
2022/08/07 05:19:24;;;;;;;0.05;0.05;;;11.40;99.90;;;;;;5003171;28;20037;-80
2022/08/07 05:21:57;;;;;;;0.00;0.00;;;11.30;99.90;;;;;;5003162;28;20061;-80
2022/08/07 05:24:24;;;;;;;0.00;0.00;;;11.40;99.90;;;;;;5003289;28;20159;-80
2022/08/07 05:26:54;;;;;;;0.00;0.00;;;11.40;99.90;;;;;;5019336;28;20042;-80
2022/08/07 05:29:22;;;;;;;0.00;0.00;;;11.50;99.90;;;;;;5019069;28;20052;-80
2022/08/07 05:31:48;;;;;;;0.00;0.00;;;11.50;99.90;;;;;;5002468;28;20057;-80
2022/08/07 05:34:15;;;;;;;0.00;0.00;;;11.60;99.90;;;;;;5019255;28;20393;-80
2022/08/07 05:36:45;;;;;;;0.00;0.00;;;11.60;99.90;;;;;;5062107;28;20487;-80
2022/08/07 05:39:12;;;;;;;0.00;0.00;;;11.80;99.90;;;;;;5100116;28;20046;-80
2022/08/07 05:41:38;;;;;;;0.00;0.00;;;11.70;99.90;;;;;;5100409;28;20566;-80
2022/08/07 05:44:04;;;;;;;0.03;0.03;;;11.80;99.90;;;;;;5116825;28;20479;-80
2022/08/07 05:46:30;;;;;;;0.00;0.00;;;11.80;99.90;;;;;;5116237;28;20060;-80
2022/08/07 05:48:57;;;;;;;0.00;0.00;;;11.80;99.90;;;;;;5098992;28;20048;-80
2022/08/07 05:51:23;;;;;;;0.00;0.00;;;11.90;99.90;;;;;;5099098;28;20146;-80
2022/08/07 05:53:49;;;;;;;0.00;0.00;;;12.00;99.90;;;;;;5117047;28;20135;-80
2022/08/07 05:56:16;;;;;;;0.20;0.08;;;12.10;99.90;;;;;;5096593;28;20036;-80
2022/08/07 05:58:45;;;;;;;0.00;0.00;;;12.20;99.90;;;;;;5099967;28;20085;-80
2022/08/07 06:01:13;;;;;;;0.00;0.00;;;12.30;99.90;;;;;;5116724;28;20498;-80
2022/08/07 06:03:42;;;;;;;0.00;0.00;;;12.40;99.90;;;;;;5116665;28;20039;-80
2022/08/07 06:06:10;;;;;;;0.08;0.00;;;12.50;99.90;;;;;;5099476;28;20047;-80
2022/08/07 06:08:39;;;;;;;0.00;0.00;;;12.60;99.90;;;;;;5100105;28;20061;-80
2022/08/07 06:11:05;;;;;;;0.00;0.00;;;12.70;99.90;;;;;;5116609;28;20044;-80
2022/08/07 06:13:31;;;;;;;0.00;0.00;;;12.80;99.90;;;;;;5116565;28;20043;-81
2022/08/07 06:15:57;;;;;;;0.32;0.13;;;12.80;99.90;;;;;;5098919;28;20498;-79
2022/08/07 06:18:24;;;;;;;0.00;0.00;;;13.00;99.90;;;;;;5116475;28;20096;-80
2022/08/07 06:20:50;;;;;;;0.10;0.10;;;13.00;99.90;;;;;;5099604;28;20043;-80
2022/08/07 06:23:16;;;;;;;1.85;0.20;;;13.10;99.90;;;;;;5116163;28;20047;-80
2022/08/07 06:25:44;;;;;;;0.00;0.00;;;13.20;99.90;;;;;;5116455;28;20161;-80
2022/08/07 06:28:09;;;;;;;0.20;0.10;;;13.30;99.90;;;;;;5116167;28;20044;-79
2022/08/07 06:30:36;;;;;;;1.63;0.20;;;13.50;99.90;;;;;;5098456;28;20039;-79
2022/08/07 06:33:03;;;;;;;0.40;0.17;;;13.60;99.90;;;;;;5098788;28;20124;-79
2022/08/07 06:35:29;;;;;;;0.00;0.00;;;13.70;99.90;;;;;;5116046;28;20368;-79
2022/08/07 06:37:57;;;;;;;0.17;0.10;;;13.80;99.90;;;;;;5098233;28;20403;-79
2022/08/07 06:40:23;;;;;;;0.00;0.00;;;13.90;99.90;;;;;;5115494;28;20066;-79
2022/08/07 06:42:50;;;;;;;0.00;0.00;;;14.00;99.90;;;;;;5115869;28;20138;-79
2022/08/07 06:45:19;;;;;;;0.00;0.00;;;14.10;99.90;;;;;;5115733;28;20051;-79
2022/08/07 06:47:46;;;;;;;0.00;0.00;;;14.10;99.90;;;;;;5115492;28;20043;-79
2022/08/07 06:50:12;;;;;;;0.00;0.00;;;14.20;99.90;;;;;;5114935;28;20056;-79
2022/08/07 06:52:41;;;;;;;0.00;0.00;;;14.40;99.90;;;;;;5115403;28;20052;-79
2022/08/07 06:55:18;;;;;;;0.65;0.57;;;14.50;99.90;;;;;;5115290;28;20055;-79
2022/08/07 06:57:44;;;;;;;0.03;0.03;;;14.60;99.90;;;;;;5115340;28;20135;-79
2022/08/07 07:00:11;;;;;;;0.63;0.20;;;14.80;99.90;;;;;;5097765;28;20040;-79
2022/08/07 07:02:40;;;;;;;1.60;0.00;;;15.20;99.90;;;;;;5115637;28;20142;-79
2022/08/07 07:05:06;;;;;;;0.08;0.08;;;15.80;99.90;;;;;;5098142;28;20164;-79
2022/08/07 07:07:32;;;;;;;0.25;0.22;;;16.20;99.90;;;;;;5115019;28;20050;-80
2022/08/07 07:09:57;;;;;;;1.55;0.20;;;16.50;99.90;;;;;;5114632;28;20039;-82
2022/08/07 07:12:42;;;;;;;0.00;0.00;;;16.70;99.90;;;;;;5114544;28;20058;-81
2022/08/07 07:15:13;;;;;;;0.00;0.00;;;16.70;99.90;;;;;;5115094;28;20055;-81
2022/08/07 07:17:46;;;;;;;3.20;0.63;;;16.80;99.90;;;;;;5114849;28;20072;-80
2022/08/07 07:20:20;;;;;;;0.00;0.00;;;16.80;99.90;;;;;;5115446;28;20380;-81
2022/08/07 07:22:47;;;;;;;0.00;0.00;;;16.90;99.90;;;;;;5097453;28;20055;-81
2022/08/07 07:25:14;;;;;;;0.00;0.00;;;17.00;99.90;;;;;;5114558;28;20140;-81
2022/08/07 07:27:48;;;;;;;0.00;0.00;;;17.30;99.90;;;;;;5097531;28;20063;-81
2022/08/07 07:30:14;;;;;;;0.00;0.00;;;17.60;99.90;;;;;;5114433;28;20046;-81
2022/08/07 07:32:42;;;;;;;0.13;0.13;;;17.90;99.90;;;;;;5096843;28;20040;-82
2022/08/07 07:35:10;;;;;;;0.00;0.00;;;18.00;99.90;;;;;;5114328;28;20074;-82
2022/08/07 07:37:40;;;;;;;0.10;0.10;;;18.00;99.90;;;;;;5114532;28;20533;-82
2022/08/07 07:40:11;;;;;;;0.00;0.00;;;18.00;99.90;;;;;;5097481;28;20483;-82
2022/08/07 07:42:38;;;;;;;0.00;0.00;;;17.90;99.90;;;;;;5114478;28;20058;-81
2022/08/07 07:45:05;;;;;;;0.20;0.00;;;17.90;99.90;;;;;;5114311;28;20044;-81
2022/08/07 07:47:35;;;;;;;0.00;0.00;;;18.00;99.90;;;;;;5114184;28;20039;-81
2022/08/07 07:50:02;;;;;;;0.00;0.00;;;18.10;99.90;;;;;;5096957;28;20096;-81
2022/08/07 07:52:29;;;;;;;0.00;0.00;;;18.00;99.90;;;;;;5098034;28;20101;-81
2022/08/07 07:54:56;;;;;;;0.73;0.20;;;18.10;99.90;;;;;;5097491;28;20059;-81
2022/08/07 07:57:24;;;;;;;0.70;0.45;;;18.20;99.90;;;;;;5114765;28;20040;-81
2022/08/07 07:59:50;;;;;;;0.05;0.05;;;18.20;99.90;;;;;;5114583;28;20047;-81
2022/08/07 08:02:18;;;;;;;0.00;0.00;;;18.30;99.90;;;;;;5114694;28;20043;-81
2022/08/07 08:04:45;;;;;;;0.10;0.10;;;18.40;99.90;;;;;;5113754;28;20043;-81
2022/08/07 08:07:12;;;;;;;0.00;0.00;;;18.40;99.90;;;;;;5114200;28;20052;-81
2022/08/07 08:09:39;;;;;;;0.00;0.00;;;18.40;99.90;;;;;;5114105;28;20085;-81
2022/08/07 08:12:06;;;;;;;0.10;0.10;;;18.50;99.90;;;;;;5113824;28;20035;-81
2022/08/07 08:14:33;;;;;;;0.00;0.00;;;18.60;99.90;;;;;;5096783;28;20073;-81
2022/08/07 08:17:01;;;;;;;0.20;0.20;;;18.70;99.90;;;;;;5097095;28;20059;-81
2022/08/07 08:19:29;;;;;;;0.00;0.00;;;18.70;99.90;;;;;;5097135;28;20046;-80
2022/08/07 08:27:33;;;;;;;0.15;0.15;;;18.80;99.90;;;;;;5113825;28;20056;-80
2022/08/07 08:30:10;;;;;;;0.00;0.00;;;18.90;99.90;;;;;;5096987;28;20043;-80
2022/08/07 08:32:57;;;;;;;0.10;0.10;;;18.90;99.90;;;;;;5113976;28;20047;-80
2022/08/07 08:35:25;;;;;;;0.05;0.05;;;19.00;99.90;;;;;;5114037;28;20123;-81
2022/08/07 08:37:57;;;;;;;0.00;0.00;;;19.00;99.90;;;;;;5097065;28;20047;-80
2022/08/07 08:40:37;;;;;;;0.10;0.10;;;19.10;99.90;;;;;;5097225;28;20055;-81
2022/08/07 08:43:11;;;;;;;0.08;0.08;;;19.10;99.90;;;;;;5096990;28;20048;-81
2022/08/07 08:45:54;;;;;;;0.13;0.13;;;19.10;99.90;;;;;;5096554;28;20372;-81
2022/08/07 08:48:44;;;;;;;0.25;0.25;;;19.20;99.90;;;;;;5096936;28;20144;-80
2022/08/07 08:51:25;;;;;;;0.00;0.00;;;19.20;99.90;;;;;;5114013;28;20058;-80
2022/08/07 08:53:55;;;;;;;0.52;0.13;;;19.30;99.90;;;;;;5096703;28;20057;-80
2022/08/07 08:56:25;;;;;;;0.10;0.10;;;19.30;99.90;;;;;;5113748;28;20036;-80
2022/08/07 08:59:00;;;;;;;0.00;0.00;;;19.30;99.90;;;;;;5096468;28;20097;-80
2022/08/07 09:02:09;;;;;;;0.43;0.35;;;19.40;99.90;;;;;;5114485;28;20044;-81
2022/08/07 09:05:02;;;;;;;0.00;0.00;;;19.40;99.90;;;;;;5113945;28;20437;-81
2022/08/07 09:07:42;;;;;;;0.00;0.00;;;19.60;99.90;;;;;;5097062;28;20039;-80
2022/08/07 09:10:26;;;;;;;0.00;0.00;;;19.80;99.90;;;;;;5113370;28;20074;-81
2022/08/07 09:12:51;;;;;;;0.00;0.00;;;19.90;99.90;;;;;;5113450;28;20499;-81
2022/08/07 09:15:28;;;;;;;0.00;0.00;;;20.00;99.90;;;;;;5096499;28;20090;-81
2022/08/07 09:18:10;;;;;;;0.00;0.00;;;20.10;99.90;;;;;;5114402;28;20458;-81
2022/08/07 09:21:06;;;;;;;0.00;0.00;;;20.20;99.90;;;;;;5096611;28;20548;-81
2022/08/07 09:23:53;;;;;;;0.15;0.05;;;20.20;99.90;;;;;;5109848;28;20510;-81
2022/08/07 09:26:29;;;;;;;0.05;0.05;;;20.30;99.80;;;;;;5105997;28;20051;-81
2022/08/07 09:29:07;;;;;;;4.22;0.10;;;20.40;99.20;;;;;;5113653;28;20126;-81
2022/08/07 09:32:01;;;;;;;0.00;0.00;;;20.40;99.90;;;;;;5096454;28;20096;-81
2022/08/07 09:34:38;;;;;;;0.10;0.10;;;20.50;98.40;;;;;;5096236;28;20058;-80
2022/08/07 09:37:13;;;;;;;0.00;0.00;;;20.60;98.60;;;;;;5113512;28;20085;-80
2022/08/07 09:39:57;;;;;;;0.00;0.00;;;20.70;98.40;;;;;;5096477;28;20043;-80
2022/08/07 09:42:36;;;;;;;0.00;0.00;;;20.70;98.10;;;;;;5113244;28;20059;-80
2022/08/07 09:45:17;;;;;;;0.03;0.03;;;20.80;98.90;;;;;;5113409;28;20042;-80
2022/08/07 09:48:10;;;;;;;0.00;0.00;;;20.90;98.30;;;;;;5095943;28;20051;-80
2022/08/07 09:51:00;;;;;;;0.00;0.00;;;21.00;97.80;;;;;;5112593;28;20126;-80
2022/08/07 09:53:30;;;;;;;0.25;0.10;;;21.20;97.40;;;;;;5113462;28;20086;-80
2022/08/07 09:56:18;;;;;;;0.00;0.00;;;21.40;98.40;;;;;;5096235;28;20078;-80
2022/08/07 09:59:01;;;;;;;0.10;0.10;;;21.60;96.70;;;;;;5116399;28;20503;-80
2022/08/07 10:01:43;;;;;;;0.00;0.00;;;21.70;97.30;;;;;;5116999;28;20078;-80
2022/08/07 10:04:20;;;;;;;0.00;0.00;;;21.80;97.40;;;;;;5100106;28;20115;-79
2022/08/07 10:07:16;;;;;;;0.00;0.00;;;21.90;96.10;;;;;;5116888;28;20096;-80
2022/08/07 10:09:53;;;;;;;0.00;0.00;;;22.00;95.90;;;;;;5116796;28;20043;-80
2022/08/07 10:12:45;;;;;;;0.00;0.00;;;22.10;95.10;;;;;;5117405;28;20048;-80
2022/08/07 10:15:32;;;;;;;0.00;0.00;;;22.30;95.20;;;;;;5115721;28;20056;-80
2022/08/07 10:18:32;;;;;;;0.00;0.00;;;22.40;94.80;;;;;;5115789;28;20495;-80
2022/08/07 10:21:16;;;;;;;0.00;0.00;;;22.50;94.80;;;;;;5099631;28;20050;-80
2022/08/07 10:24:05;;;;;;;0.00;0.00;;;22.50;94.20;;;;;;5116434;28;20047;-80
2022/08/07 10:26:40;;;;;;;0.10;0.10;;;22.20;92.70;;;;;;5116505;28;20376;-80
2022/08/07 10:29:33;;;;;;;0.10;0.10;;;22.20;94.20;;;;;;5116803;28;20046;-80
2022/08/07 10:32:26;;;;;;;0.00;0.00;;;22.00;92.40;;;;;;5099767;28;20044;-80
2022/08/07 10:35:26;;;;;;;0.73;0.17;;;21.80;94.00;;;;;;5116523;28;20055;-80
2022/08/07 10:38:13;;;;;;;0.10;0.10;;;21.90;95.20;;;;;;5093870;28;20499;-80
2022/08/07 10:41:07;;;;;;;0.00;0.00;;;22.10;92.70;;;;;;5115864;28;20517;-80
2022/08/07 10:43:42;;;;;;;0.00;0.00;;;22.30;93.40;;;;;;5116457;28;20124;-81
2022/08/07 10:46:24;;;;;;;0.13;0.13;;;22.50;92.40;;;;;;5099558;28;20518;-80
2022/08/07 10:49:13;;;;;;;0.00;0.00;;;22.80;92.10;;;;;;5116660;28;20091;-80
2022/08/07 10:51:52;;;;;;;0.00;0.00;;;23.00;92.30;;;;;;5116952;28;20461;-80
2022/08/07 10:54:36;;;;;;;0.60;0.20;;;23.40;91.40;;;;;;5098844;28;20044;-81
2022/08/07 10:57:05;;;;;;;;;;;23.50;93.00;;;;;;5099437;28;20102;-80
2022/08/07 11:00:07;;;;;;;0.00;0.00;;;23.60;92.10;;;;;;5098968;28;19965;-80
2022/08/07 11:02:38;;;;;;;0.00;0.00;;;23.80;91.70;;;;;;5097658;28;20094;-81
2022/08/07 11:05:23;;;;;;;0.00;0.00;;;24.00;90.80;;;;;;5098811;28;20475;-81
2022/08/07 11:07:58;;;;;;;1.10;0.28;;;24.10;90.00;;;;;;5098455;28;20457;-81
2022/08/07 11:10:42;;;;;;;0.00;0.00;;;24.10;88.10;;;;;;5115572;28;20039;-80
2022/08/07 11:13:27;;;;;;;;;;;24.00;81.60;;;;;;5115715;28;20047;-80
2022/08/07 11:15:56;;;;;;;0.00;0.00;;;24.10;84.80;;;;;;5097994;28;20497;-80
2022/08/07 11:18:26;;;;;;;0.00;0.00;;;24.20;80.70;;;;;;5115225;28;20096;-80
2022/08/07 11:21:03;;;;;;;0.20;0.10;;;24.30;81.40;;;;;;5098854;28;20152;-80
2022/08/07 11:23:58;;;;;;;0.00;0.00;;;24.40;83.00;;;;;;5098460;28;20050;-81
2022/08/07 11:26:43;;;;;;;0.00;0.00;;;24.40;79.80;;;;;;5115060;28;20490;-81
2022/08/07 11:29:17;;;;;;;0.00;0.00;;;24.50;79.50;;;;;;5098273;28;20050;-80
2022/08/07 11:32:06;;;;;;;0.00;0.00;;;24.60;76.60;;;;;;5098302;28;20048;-81
2022/08/07 11:34:51;;;;;;;0.30;0.22;;;24.60;80.20;;;;;;5000412;28;20452;-81
2022/08/07 11:37:17;;;;;;;0.00;0.00;;;24.70;80.10;;;;;;4999651;28;20663;-80
2022/08/07 11:40:30;;;;;;;0.00;0.00;;;24.90;77.70;;;;;;5016857;28;20151;-80
2022/08/07 11:43:32;;;;;;;0.00;0.00;;;24.90;75.20;;;;;;4958445;28;20065;-80
2022/08/07 11:46:19;;;;;;;0.00;0.00;;;24.90;76.50;;;;;;4901362;29;20063;-80
2022/08/07 11:48:58;;;;;;;0.00;0.00;;;25.10;76.90;;;;;;4900446;29;20056;-80
2022/08/07 11:51:29;;;;;;;0.00;0.00;;;25.20;74.40;;;;;;4885756;29;20067;-80
2022/08/07 11:54:32;;;;;;;0.08;0.00;;;25.10;73.70;;;;;;4900921;29;20493;-80
2022/08/07 11:57:21;;;;;;;0.00;0.00;;;25.10;74.20;;;;;;4885936;29;20060;-80
2022/08/07 11:59:54;;;;;;;0.00;0.00;;;25.20;75.90;;;;;;4916718;29;20080;-80
2022/08/07 12:02:22;;;;;;;0.00;0.00;;;25.20;75.50;;;;;;4900702;29;20457;-80
2022/08/07 12:05:06;;;;;;;0.00;0.00;;;25.30;77.70;;;;;;4900696;29;20280;-80
2022/08/07 12:07:39;;;;;;;0.00;0.00;;;25.30;72.80;;;;;;4885589;29;20059;-80
2022/08/07 12:10:18;;;;;;;0.13;0.13;;;25.30;73.70;;;;;;4916317;29;20063;-80
2022/08/07 12:12:52;;;;;;;0.20;0.20;;;25.40;70.90;;;;;;4995835;28;20054;-80
2022/08/07 12:15:23;;;;;;;0.00;0.00;;;25.50;70.30;;;;;;5013328;28;20072;-80
2022/08/07 12:17:58;;;;;;;0.00;0.00;;;25.50;68.40;;;;;;4980428;28;20093;-80
2022/08/07 12:20:34;;;;;;;0.00;0.00;;;25.50;68.60;;;;;;5037915;28;20048;-80
2022/08/07 12:23:06;;;;;;;0.10;0.10;;;25.60;69.70;;;;;;5099061;28;20078;-80
2022/08/07 12:25:52;;;;;;;2.05;0.20;;;25.60;68.90;;;;;;5113987;28;20047;-80
2022/08/07 12:28:52;;;;;;;0.00;0.00;;;25.70;69.30;;;;;;5113871;28;20502;-80
2022/08/07 12:31:50;;;;;;;0.00;0.00;;;25.70;71.30;;;;;;5096304;28;20487;-80
2022/08/07 12:34:18;;;;;;;0.00;0.00;;;25.60;70.10;;;;;;5097435;28;20048;-80
2022/08/07 12:36:45;;;;;;;0.00;0.00;;;25.40;69.10;;;;;;5113504;28;20051;-80
2022/08/07 12:39:12;;;;;;;0.00;0.00;;;25.50;69.10;;;;;;5096809;28;20130;-80
2022/08/07 12:41:39;;;;;;;0.00;0.00;;;25.60;69.40;;;;;;5113464;28;20052;-80
2022/08/07 12:44:09;;;;;;;0.00;0.00;;;25.60;69.00;;;;;;5113696;28;20386;-80
2022/08/07 12:46:59;;;;;;;0.00;0.00;;;25.70;69.00;;;;;;5113430;28;20043;-80
2022/08/07 12:49:58;;;;;;;0.00;0.00;;;25.80;69.80;;;;;;5113128;28;20052;-80
2022/08/07 12:52:33;;;;;;;0.00;0.00;;;25.70;63.80;;;;;;5114310;28;20476;-80
2022/08/07 12:55:23;;;;;;;0.35;0.15;;;25.80;66.50;;;;;;5113571;28;20047;-80
2022/08/07 12:57:50;;;;;;;0.00;0.00;;;25.80;66.80;;;;;;5096439;28;20093;-80
2022/08/07 13:00:16;;;;;;;0.00;0.00;;;25.90;66.80;;;;;;5113607;28;20044;-80
2022/08/07 13:03:09;;;;;;;0.00;0.00;;;26.20;66.50;;;;;;5096428;28;20445;-80
2022/08/07 13:05:51;;;;;;;0.00;0.00;;;26.20;68.80;;;;;;5114088;28;20057;-80
2022/08/07 13:08:22;;;;;;;0.10;0.10;;;26.40;69.10;;;;;;5112983;28;20077;-80
2022/08/07 13:11:14;;;;;;;0.00;0.00;;;26.30;66.50;;;;;;5096050;28;20096;-81
2022/08/07 13:14:08;;;;;;;0.00;0.00;;;26.20;69.00;;;;;;5096441;28;20039;-80
2022/08/07 13:16:59;;;;;;;0.00;0.00;;;26.40;68.20;;;;;;5114533;28;20039;-80
2022/08/07 13:19:38;;;;;;;0.00;0.00;;;26.10;61.80;;;;;;5114305;28;20044;-80
2022/08/07 13:22:18;;;;;;;0.00;0.00;;;25.60;64.00;;;;;;5096896;28;20054;-80
2022/08/07 13:24:57;;;;;;;0.00;0.00;;;25.20;66.50;;;;;;5096590;28;20047;-80